Flight Track Log - Related Links

Times and Time Zones

All times are in EST time to prevent confusion due to time zone crossing. See the BER6502 flight status page for this flight to view local times or setup timezone preferences in your user account.

Time Position Orientation Groundspeed Altitude Reporting Facility
EST Latitude Longitude Course Direction KTS MPH feet Rate Location/Type
Sun 11:48:00 AM 51.6629 9.8337 64° Northeast  Level Estimated
Sun 11:49:00 AM 51.7078 9.9949 66° East  Level Estimated
Sun 11:50:00 AM 51.7525 10.1564 66° East  Level Estimated
Sun 11:51:00 AM 51.7970 10.3183 66° East  Level Estimated
Sun 11:52:00 AM 51.8413 10.4804 66° East  Level Estimated
Sun 11:53:00 AM 51.8853 10.6429 66° East  Level Estimated
Sun 11:54:00 AM 51.9292 10.8057 66° East  Level Estimated
Sun 11:55:00 AM 51.9728 10.9688 66° East  Level Estimated
Sun 11:56:00 AM 52.0161 11.1322 67° East  Level Estimated
Sun 11:57:00 AM 52.0593 11.2959 67° East  Level Estimated
Sun 11:58:00 AM 52.1022 11.4600 67° East  Level Estimated
Sun 11:59:00 AM 52.1449 11.6244 67° East  Level Estimated
Sun 12:00:00 PM 52.1874 11.7890 67° East  Level Estimated
Sun 12:01:00 PM 52.2296 11.9540 67° East  Level Estimated
Sun 12:02:00 PM 52.2716 12.1194 67° East  Level Estimated
Sun 12:03:00 PM 52.3134 12.2850 68° East  Level Estimated
Sun 12:04:00 PM 52.3549 12.4509 68° East  Level Estimated
Sun 12:05:00 PM 52.3962 12.6172 68° East  Level Estimated
Sun 12:06:00 PM 52.4373 12.7837 68° East  Level Estimated
Sun 12:07:00 PM 52.4781 12.9506 68° East  Level Estimated
Sun 12:08:00 PM 52.5187 13.1178 68° East  Level Estimated
Sun 12:09:00 PM 52.5591 13.2852 68° East  Level Estimated
Sun 12:10:00 PM 52.5597 13.2877 68° East  Level Estimated
Sun 12:11:00 PM 52.5597 13.2877 171° South  Level Estimated
Sun 12:12:00 PM 52.5597 13.2877 171° South  Level Estimated
Sun 12:13:00 PM 52.5597 13.2877 171° South  Level Estimated
Sun 12:14:00 PM 52.5597 13.2877 171° South  Level Estimated
Sun 12:15:00 PM 52.5597 13.2877 171° South  Level Estimated
Sun 12:16:00 PM 52.5597 13.2877 171° South  Level Estimated
Sun 12:17:00 PM 52.5597 13.2877 171° South  Level Estimated
Sun 12:18:00 PM 52.5597 13.2877 171° South  Level Estimated
Sun 12:19:00 PM 52.5597 13.2877 171° South  Level Estimated
Sun 12:20:00 PM 52.5597 13.2877 171° South  Level Estimated
Sun 12:21:00 PM 52.5597 13.2877 171° South  Level Estimated
Sun 12:22:00 PM 52.5597 13.2877 171° South  Level Estimated
Sun 12:23:00 PM 52.5597 13.2877 171° South  Level Estimated
Sun 12:24:00 PM 52.5597 13.2877 171° South  Level Estimated
Sun 12:25:00 PM 52.5597 13.2877 171° South  Level Estimated

Login

Don't have an account? Register now (free) for customized features, flight alerts, and more!